createdAt,value
2017-01-09T00:00:32.451Z,16.49
2017-01-09T00:01:13.050Z,16.49
2017-01-09T00:01:53.651Z,16.45
2017-01-09T00:02:34.289Z,16.42
2017-01-09T00:03:14.871Z,16.48
2017-01-09T00:03:55.465Z,16.45
2017-01-09T00:04:36.063Z,16.5
2017-01-09T00:05:16.665Z,16.41
2017-01-09T00:05:57.329Z,16.49
2017-01-09T00:06:37.883Z,16.49
2017-01-09T00:07:18.483Z,16.45
2017-01-09T00:07:59.073Z,16.52
2017-01-09T00:08:39.668Z,16.58
2017-01-09T00:09:20.276Z,16.48
2017-01-09T00:10:00.858Z,16.49
2017-01-09T00:10:41.443Z,16.49
2017-01-09T00:11:22.039Z,16.49
2017-01-09T00:12:02.622Z,16.44
2017-01-09T00:12:43.210Z,16.44
2017-01-09T00:13:23.788Z,16.4
2017-01-09T00:14:04.365Z,16.42
2017-01-09T00:14:45.007Z,16.41
2017-01-09T00:15:25.610Z,16.34
2017-01-09T00:16:06.200Z,16.38
2017-01-09T00:16:46.790Z,16.44
2017-01-09T00:17:27.375Z,16.37
2017-01-09T00:18:08.015Z,16.34
2017-01-09T00:18:48.611Z,16.38
2017-01-09T00:19:29.211Z,16.38
2017-01-09T00:20:09.796Z,16.37
2017-01-09T00:20:50.390Z,16.34
2017-01-09T00:21:30.973Z,16.42
2017-01-09T00:22:11.573Z,16.38
2017-01-09T00:22:52.867Z,16.42
2017-01-09T00:23:33.484Z,16.41
2017-01-09T00:24:14.102Z,16.34
2017-01-09T00:24:54.746Z,16.38
2017-01-09T00:25:35.335Z,16.34
2017-01-09T00:26:15.936Z,16.35
2017-01-09T00:26:56.535Z,16.34
2017-01-09T00:27:37.140Z,16.37
2017-01-09T00:28:17.723Z,16.38
2017-01-09T00:28:58.379Z,16.41
2017-01-09T00:29:38.975Z,16.42
2017-01-09T00:30:19.565Z,16.37
2017-01-09T00:31:00.168Z,16.37
2017-01-09T00:31:40.851Z,16.33
2017-01-09T00:32:21.441Z,16.42
2017-01-09T00:33:02.037Z,16.41
2017-01-09T00:33:42.620Z,16.37
2017-01-09T00:34:23.205Z,16.37
2017-01-09T00:35:03.815Z,16.34
2017-01-09T00:35:44.523Z,16.33
2017-01-09T00:36:25.118Z,16.34
2017-01-09T00:37:05.702Z,16.35
2017-01-09T00:37:46.285Z,16.37
2017-01-09T00:38:26.879Z,16.33
2017-01-09T00:39:07.498Z,16.37
2017-01-09T00:39:48.087Z,16.44
2017-01-09T00:40:28.669Z,16.41
2017-01-09T00:41:09.249Z,16.45
2017-01-09T00:41:49.924Z,16.42
2017-01-09T00:42:30.536Z,16.4
2017-01-09T00:43:11.123Z,16.42
2017-01-09T00:43:51.705Z,16.37
2017-01-09T00:44:32.290Z,16.38
2017-01-09T00:45:12.894Z,16.4
2017-01-09T00:45:53.482Z,16.38
2017-01-09T00:46:34.101Z,16.37
2017-01-09T00:47:14.685Z,16.33
2017-01-09T00:47:55.273Z,16.48
2017-01-09T00:48:35.869Z,16.41
2017-01-09T00:49:16.472Z,16.45
2017-01-09T00:49:57.068Z,16.38
2017-01-09T00:50:37.746Z,16.41
2017-01-09T00:51:18.328Z,16.38
2017-01-09T00:51:58.981Z,16.37
2017-01-09T00:52:39.564Z,16.42
2017-01-09T00:53:20.152Z,16.41
2017-01-09T00:54:00.767Z,16.42
2017-01-09T00:54:41.434Z,16.41
2017-01-09T00:55:22.039Z,16.42
2017-01-09T00:56:02.634Z,16.44
2017-01-09T00:56:43.236Z,16.42
2017-01-09T00:57:23.803Z,16.44
2017-01-09T00:58:04.463Z,16.41
2017-01-09T00:58:45.050Z,16.42
2017-01-09T00:59:25.681Z,16.45
2017-01-09T01:00:06.353Z,16.37
2017-01-09T01:00:46.935Z,16.4
2017-01-09T01:01:27.561Z,16.35
2017-01-09T01:02:08.209Z,16.37
2017-01-09T01:02:48.792Z,16.41
2017-01-09T01:03:29.489Z,16.35
2017-01-09T01:04:10.083Z,16.45
2017-01-09T01:04:50.669Z,16.35
2017-01-09T01:05:31.248Z,16.4
2017-01-09T01:06:11.836Z,16.37
2017-01-09T01:06:52.418Z,16.42
2017-01-09T01:07:33.051Z,16.38
2017-01-09T01:08:13.646Z,16.4
2017-01-09T01:08:54.325Z,16.37
2017-01-09T01:09:34.990Z,16.4
2017-01-09T01:10:15.585Z,16.4
2017-01-09T01:10:56.170Z,16.38
2017-01-09T01:11:36.766Z,16.42
2017-01-09T01:12:17.364Z,16.41
2017-01-09T01:12:57.984Z,16.42
2017-01-09T01:13:38.665Z,16.42
2017-01-09T01:14:19.184Z,16.41
2017-01-09T01:14:59.807Z,16.38
2017-01-09T01:15:40.396Z,16.37
2017-01-09T01:16:21.000Z,16.34
2017-01-09T01:17:01.581Z,16.37
2017-01-09T01:17:42.169Z,16.34
2017-01-09T01:18:22.747Z,16.35
2017-01-09T01:19:03.413Z,16.4
2017-01-09T01:19:43.924Z,16.41
2017-01-09T01:20:25.049Z,16.4
2017-01-09T01:21:05.631Z,16.4
2017-01-09T01:21:46.217Z,16.44
2017-01-09T01:22:26.802Z,16.5
2017-01-09T01:23:07.497Z,16.55
2017-01-09T01:23:48.074Z,16.48
2017-01-09T01:24:28.755Z,16.48
2017-01-09T01:25:09.339Z,16.56
2017-01-09T01:25:49.920Z,16.49
2017-01-09T01:26:30.516Z,16.48
2017-01-09T01:27:11.101Z,16.44
2017-01-09T01:27:51.681Z,16.5
2017-01-09T01:28:32.283Z,16.5
2017-01-09T01:29:12.880Z,16.44
2017-01-09T01:29:53.491Z,16.44
2017-01-09T01:30:34.167Z,16.49
2017-01-09T01:31:14.747Z,16.44
2017-01-09T01:31:55.352Z,16.52
2017-01-09T01:32:35.957Z,16.44
2017-01-09T01:33:16.550Z,16.5
2017-01-09T01:33:57.154Z,16.5
2017-01-09T01:34:37.737Z,16.42
2017-01-09T01:35:18.323Z,16.53
2017-01-09T01:35:58.906Z,16.42
2017-01-09T01:36:39.500Z,16.48
2017-01-09T01:37:20.112Z,16.42
2017-01-09T01:38:00.697Z,16.49
2017-01-09T01:38:41.278Z,16.53
2017-01-09T01:39:21.864Z,16.52
2017-01-09T01:40:02.446Z,16.52
2017-01-09T01:40:43.068Z,16.55
2017-01-09T01:41:23.713Z,16.48
2017-01-09T01:42:04.297Z,16.48
2017-01-09T01:42:44.943Z,16.45
2017-01-09T01:43:25.525Z,16.42
2017-01-09T01:44:06.127Z,16.42
2017-01-09T01:44:46.705Z,16.41
2017-01-09T01:45:27.299Z,16.41
2017-01-09T01:46:07.880Z,16.45
2017-01-09T01:46:48.520Z,16.38
2017-01-09T01:47:29.109Z,16.4
2017-01-09T01:48:09.702Z,16.45
2017-01-09T01:48:50.288Z,16.41
2017-01-09T01:49:30.902Z,16.41
2017-01-09T01:50:11.485Z,16.45
2017-01-09T01:50:52.098Z,16.37
2017-01-09T01:51:32.666Z,16.38
2017-01-09T01:52:13.335Z,16.4
2017-01-09T01:52:53.921Z,16.41
2017-01-09T01:53:34.596Z,16.48
2017-01-09T01:54:15.174Z,16.49
2017-01-09T01:54:55.763Z,16.44
2017-01-09T01:55:36.434Z,16.53
2017-01-09T01:56:17.024Z,16.5
2017-01-09T01:56:57.615Z,16.48
2017-01-09T01:57:38.217Z,16.5
2017-01-09T01:58:18.797Z,16.44
2017-01-09T01:58:59.387Z,16.45
2017-01-09T01:59:39.972Z,16.44
2017-01-09T02:00:20.570Z,16.42
2017-01-09T02:01:01.162Z,16.45
2017-01-09T02:01:41.753Z,16.45
2017-01-09T02:02:22.374Z,16.5
2017-01-09T02:03:02.966Z,16.45
2017-01-09T02:03:43.540Z,16.41
2017-01-09T02:04:24.192Z,16.48
2017-01-09T02:05:04.780Z,16.48
2017-01-09T02:05:45.356Z,16.49
2017-01-09T02:06:25.945Z,16.44
2017-01-09T02:07:06.533Z,16.52
2017-01-09T02:07:47.115Z,16.48
2017-01-09T02:08:27.736Z,16.44
2017-01-09T02:09:08.320Z,16.49
2017-01-09T02:09:48.898Z,16.5
2017-01-09T02:10:29.571Z,16.56
2017-01-09T02:11:10.144Z,16.44
2017-01-09T02:11:50.782Z,16.42
2017-01-09T02:12:31.360Z,16.44
2017-01-09T02:13:11.942Z,16.42
2017-01-09T02:13:52.524Z,16.38
2017-01-09T02:14:33.102Z,16.44
2017-01-09T02:15:13.686Z,16.48
2017-01-09T02:15:54.299Z,16.44
2017-01-09T02:16:34.885Z,16.44
2017-01-09T02:17:15.470Z,16.4
2017-01-09T02:17:56.157Z,16.48
2017-01-09T02:18:36.774Z,16.45
2017-01-09T02:19:17.430Z,16.44
2017-01-09T02:19:58.039Z,16.45
2017-01-09T02:20:38.625Z,16.48
2017-01-09T02:21:19.222Z,16.44
2017-01-09T02:21:59.809Z,16.41
2017-01-09T02:22:40.391Z,16.38
2017-01-09T02:23:21.075Z,16.48
2017-01-09T02:24:01.653Z,16.49
2017-01-09T02:24:42.280Z,16.37
2017-01-09T02:25:22.898Z,16.41
2017-01-09T02:26:03.481Z,16.38
2017-01-09T02:26:44.080Z,16.42
2017-01-09T02:27:24.747Z,16.37
2017-01-09T02:28:05.337Z,16.4
2017-01-09T02:28:45.933Z,16.38
2017-01-09T02:29:26.506Z,16.41
2017-01-09T02:30:07.096Z,16.4
2017-01-09T02:30:47.740Z,16.41
2017-01-09T02:31:28.314Z,16.44
2017-01-09T02:32:08.957Z,16.44
2017-01-09T02:32:49.588Z,16.41
2017-01-09T02:33:30.165Z,16.44
2017-01-09T02:34:10.766Z,16.37
2017-01-09T02:34:51.350Z,16.42
2017-01-09T02:35:31.942Z,16.37
2017-01-09T02:36:12.524Z,16.48
2017-01-09T02:36:53.101Z,16.38
2017-01-09T02:37:33.695Z,16.41
2017-01-09T02:38:14.324Z,16.38
2017-01-09T02:38:54.937Z,16.42
2017-01-09T02:39:35.523Z,16.34
2017-01-09T02:40:16.101Z,16.42
2017-01-09T02:40:56.688Z,16.42
2017-01-09T02:41:37.268Z,16.35
2017-01-09T02:42:17.850Z,16.38
2017-01-09T02:42:58.437Z,16.42
2017-01-09T02:43:39.016Z,16.42
2017-01-09T02:44:19.596Z,16.44
2017-01-09T02:45:00.175Z,16.41
2017-01-09T02:45:40.753Z,16.35
2017-01-09T02:46:21.330Z,16.35
2017-01-09T02:47:01.915Z,16.4
2017-01-09T02:47:42.499Z,16.38
2017-01-09T02:48:23.100Z,16.35
2017-01-09T02:49:03.673Z,16.42
2017-01-09T02:49:44.252Z,16.41
2017-01-09T02:50:24.831Z,16.41
2017-01-09T02:51:05.417Z,16.35
2017-01-09T02:51:46.087Z,16.38
2017-01-09T02:52:26.721Z,16.37
2017-01-09T02:53:07.251Z,16.38
2017-01-09T02:53:47.908Z,16.35
2017-01-09T02:54:28.489Z,16.4
2017-01-09T02:55:09.067Z,16.34
2017-01-09T02:55:49.681Z,16.37
2017-01-09T02:56:30.272Z,16.33
2017-01-09T02:57:10.859Z,16.33
2017-01-09T02:57:51.448Z,16.37
2017-01-09T02:58:32.030Z,16.37
2017-01-09T02:59:12.653Z,16.3
2017-01-09T02:59:53.229Z,16.31
2017-01-09T03:00:33.825Z,16.31
2017-01-09T03:01:14.409Z,16.34
2017-01-09T03:01:54.992Z,16.4
2017-01-09T03:02:36.184Z,16.41
2017-01-09T03:03:16.763Z,16.38
2017-01-09T03:03:57.356Z,16.31
2017-01-09T03:04:37.940Z,16.33
2017-01-09T03:05:18.535Z,16.35
2017-01-09T03:05:59.371Z,16.35
2017-01-09T03:06:39.963Z,16.45
2017-01-09T03:07:20.553Z,16.38
2017-01-09T03:08:01.130Z,16.42
2017-01-09T03:08:41.709Z,16.41
2017-01-09T03:09:22.289Z,16.38
2017-01-09T03:10:02.877Z,16.41
2017-01-09T03:10:43.456Z,16.41
2017-01-09T03:11:24.035Z,16.42
2017-01-09T03:12:04.622Z,16.37
2017-01-09T03:12:45.204Z,16.37
2017-01-09T03:13:25.788Z,16.34
2017-01-09T03:14:06.369Z,16.33
2017-01-09T03:14:46.991Z,16.3
2017-01-09T03:15:27.618Z,16.33
2017-01-09T03:16:08.201Z,16.4
2017-01-09T03:16:48.784Z,16.35
2017-01-09T03:17:29.382Z,16.38
2017-01-09T03:18:09.974Z,16.41
2017-01-09T03:18:50.561Z,16.4
2017-01-09T03:19:31.145Z,16.41
2017-01-09T03:20:11.725Z,16.34
2017-01-09T03:20:52.310Z,16.35
2017-01-09T03:21:32.978Z,16.35
2017-01-09T03:22:13.560Z,16.35
2017-01-09T03:22:54.147Z,16.35
2017-01-09T03:23:34.782Z,16.41
2017-01-09T03:24:15.369Z,16.41
2017-01-09T03:24:55.945Z,16.4
2017-01-09T03:25:36.517Z,16.4
2017-01-09T03:26:17.098Z,16.44
2017-01-09T03:26:57.783Z,16.34
2017-01-09T03:27:38.369Z,16.35
2017-01-09T03:28:18.944Z,16.35
2017-01-09T03:29:00.194Z,16.35
2017-01-09T03:29:40.812Z,16.38
2017-01-09T03:30:21.395Z,16.41
2017-01-09T03:31:01.974Z,16.34
2017-01-09T03:31:42.563Z,16.45
2017-01-09T03:32:23.151Z,16.4
2017-01-09T03:33:03.737Z,16.42
2017-01-09T03:33:44.326Z,16.38
2017-01-09T03:34:24.910Z,16.35
2017-01-09T03:35:05.564Z,16.41
2017-01-09T03:35:46.215Z,16.37
2017-01-09T03:36:26.787Z,16.41
2017-01-09T03:37:07.369Z,16.38
2017-01-09T03:37:48.019Z,16.38
2017-01-09T03:38:28.616Z,16.35
2017-01-09T03:39:09.188Z,16.38
2017-01-09T03:39:49.781Z,16.33
2017-01-09T03:40:30.411Z,16.38
2017-01-09T03:41:10.984Z,16.35
2017-01-09T03:41:51.583Z,16.31
2017-01-09T03:42:32.150Z,16.33
2017-01-09T03:43:12.734Z,16.34
2017-01-09T03:43:53.321Z,16.33
2017-01-09T03:44:33.901Z,16.38
2017-01-09T03:45:14.475Z,16.4
2017-01-09T03:45:55.076Z,16.35
2017-01-09T03:46:35.774Z,16.41
2017-01-09T03:47:16.353Z,16.35
2017-01-09T03:47:57.013Z,16.35
2017-01-09T03:48:37.597Z,16.26
2017-01-09T03:49:18.176Z,16.33
2017-01-09T03:49:58.761Z,16.37
2017-01-09T03:50:39.346Z,16.34
2017-01-09T03:51:19.924Z,16.37
2017-01-09T03:52:00.511Z,16.37
2017-01-09T03:52:41.092Z,16.33
2017-01-09T03:53:21.709Z,16.4
2017-01-09T03:54:02.352Z,16.35
2017-01-09T03:54:42.955Z,16.37
2017-01-09T03:55:23.528Z,16.37
2017-01-09T03:56:04.206Z,16.45
2017-01-09T03:56:44.831Z,16.34
2017-01-09T03:57:25.426Z,16.37
2017-01-09T03:58:06.018Z,16.34
2017-01-09T03:58:46.599Z,16.34
2017-01-09T03:59:27.184Z,16.37
2017-01-09T04:00:07.872Z,16.4
2017-01-09T04:00:48.559Z,16.37
2017-01-09T04:01:29.148Z,16.37
2017-01-09T04:02:09.726Z,16.35
2017-01-09T04:02:50.348Z,16.33
2017-01-09T04:03:30.923Z,16.31
2017-01-09T04:04:11.515Z,16.33
2017-01-09T04:04:52.098Z,16.42
2017-01-09T04:05:32.692Z,16.42
2017-01-09T04:06:13.250Z,16.34
2017-01-09T04:06:53.835Z,16.33
2017-01-09T04:07:34.412Z,16.34
2017-01-09T04:08:14.997Z,16.33
2017-01-09T04:08:55.576Z,16.35
2017-01-09T04:09:36.201Z,16.31
2017-01-09T04:10:16.899Z,16.34
2017-01-09T04:10:57.480Z,16.33
2017-01-09T04:11:38.060Z,16.31
2017-01-09T04:12:18.640Z,16.34
2017-01-09T04:12:59.222Z,16.38
2017-01-09T04:13:39.797Z,16.3
2017-01-09T04:14:20.376Z,16.35
2017-01-09T04:15:00.962Z,16.38
2017-01-09T04:15:41.585Z,16.33
2017-01-09T04:16:22.180Z,16.37
2017-01-09T04:17:02.834Z,16.42
2017-01-09T04:17:43.431Z,16.34
2017-01-09T04:18:24.011Z,16.41
2017-01-09T04:19:04.592Z,16.3
2017-01-09T04:19:45.325Z,16.3
2017-01-09T04:20:25.899Z,16.35
2017-01-09T04:21:06.526Z,16.33
2017-01-09T04:21:47.105Z,16.34
2017-01-09T04:22:27.673Z,16.33
2017-01-09T04:23:08.256Z,16.33
2017-01-09T04:23:48.858Z,16.34
2017-01-09T04:24:29.440Z,16.37
2017-01-09T04:25:10.023Z,16.35
2017-01-09T04:25:50.616Z,16.33
2017-01-09T04:26:31.292Z,16.33
2017-01-09T04:27:11.892Z,16.37
2017-01-09T04:27:52.488Z,16.33
2017-01-09T04:28:33.079Z,16.37
2017-01-09T04:29:13.668Z,16.34
2017-01-09T04:29:54.250Z,16.37
2017-01-09T04:30:34.836Z,16.4
2017-01-09T04:31:15.414Z,16.3
2017-01-09T04:31:55.990Z,16.35
2017-01-09T04:32:36.573Z,16.31
2017-01-09T04:33:17.180Z,16.23
2017-01-09T04:33:57.767Z,16.34
2017-01-09T04:34:38.353Z,16.34
2017-01-09T04:35:18.934Z,16.41
2017-01-09T04:35:59.509Z,16.34
2017-01-09T04:36:40.085Z,16.33
2017-01-09T04:37:20.777Z,16.33
2017-01-09T04:38:01.352Z,16.33
2017-01-09T04:38:41.928Z,16.26
2017-01-09T04:39:22.572Z,16.23
2017-01-09T04:40:03.152Z,16.31
2017-01-09T04:40:43.745Z,16.26
2017-01-09T04:41:24.335Z,16.26
2017-01-09T04:42:04.920Z,16.25
2017-01-09T04:42:45.554Z,16.3
2017-01-09T04:43:26.132Z,16.41
2017-01-09T04:44:06.716Z,16.33
2017-01-09T04:44:47.314Z,16.38
2017-01-09T04:45:27.894Z,16.26
2017-01-09T04:46:08.566Z,16.34
2017-01-09T04:46:49.157Z,16.34
2017-01-09T04:47:29.733Z,16.35
2017-01-09T04:48:10.309Z,16.37
2017-01-09T04:48:50.894Z,16.35
2017-01-09T04:49:31.474Z,16.33
2017-01-09T04:50:12.056Z,16.25
2017-01-09T04:50:52.646Z,16.2
2017-01-09T04:51:33.259Z,16.31
2017-01-09T04:52:13.835Z,16.35
2017-01-09T04:52:54.424Z,16.25
2017-01-09T04:53:35.094Z,16.2
2017-01-09T04:54:15.674Z,16.23
2017-01-09T04:54:56.311Z,16.11
2017-01-09T04:55:36.898Z,16.18
2017-01-09T04:56:17.481Z,16.22
2017-01-09T04:56:58.145Z,16.25
2017-01-09T04:57:38.728Z,16.31
2017-01-09T04:58:19.306Z,16.34
2017-01-09T04:58:59.887Z,16.26
2017-01-09T04:59:40.473Z,16.26
2017-01-09T05:00:21.054Z,16.2
2017-01-09T05:01:01.639Z,16.26
2017-01-09T05:01:42.217Z,16.18
2017-01-09T05:02:22.838Z,16.22
2017-01-09T05:03:03.402Z,16.14
2017-01-09T05:03:43.983Z,16.18
2017-01-09T05:04:24.561Z,16.23
2017-01-09T05:05:05.149Z,16.23
2017-01-09T05:05:45.820Z,16.25
2017-01-09T05:06:26.392Z,16.16
2017-01-09T05:07:06.971Z,16.23
2017-01-09T05:07:47.546Z,16.18
2017-01-09T05:08:28.115Z,16.22
2017-01-09T05:09:08.697Z,16.14
2017-01-09T05:09:49.285Z,16.16
2017-01-09T05:10:29.866Z,16.2
2017-01-09T05:11:10.447Z,16.2
2017-01-09T05:11:51.031Z,16.25
2017-01-09T05:12:31.692Z,16.15
2017-01-09T05:13:12.353Z,16.22
2017-01-09T05:13:52.933Z,16.18
2017-01-09T05:14:33.546Z,16.18
2017-01-09T05:15:14.133Z,16.26
2017-01-09T05:15:54.712Z,16.3
2017-01-09T05:16:35.299Z,16.35
2017-01-09T05:17:15.883Z,16.3
2017-01-09T05:17:56.459Z,16.3
2017-01-09T05:18:37.124Z,16.38
2017-01-09T05:19:17.703Z,16.33
2017-01-09T05:19:58.283Z,16.35
2017-01-09T05:20:38.870Z,16.37
2017-01-09T05:21:19.449Z,16.31
2017-01-09T05:22:00.030Z,16.2
2017-01-09T05:22:40.599Z,16.23
2017-01-09T05:23:21.222Z,16.3
2017-01-09T05:24:01.916Z,16.22
2017-01-09T05:24:42.492Z,16.18
2017-01-09T05:25:23.173Z,16.3
2017-01-09T05:26:03.768Z,16.3
2017-01-09T05:26:44.348Z,16.27
2017-01-09T05:27:24.935Z,16.23
2017-01-09T05:28:05.524Z,16.23
2017-01-09T05:28:46.104Z,16.18
2017-01-09T05:29:26.691Z,16.22
2017-01-09T05:30:07.277Z,16.26
2017-01-09T05:30:47.852Z,16.3
2017-01-09T05:31:28.436Z,16.26
2017-01-09T05:32:09.010Z,16.18
2017-01-09T05:32:49.683Z,16.23
2017-01-09T05:33:30.263Z,16.27
2017-01-09T05:34:10.843Z,16.25
2017-01-09T05:34:51.435Z,16.2
2017-01-09T05:35:32.011Z,16.26
2017-01-09T05:36:12.652Z,16.18
2017-01-09T05:36:53.250Z,16.31
2017-01-09T05:37:33.840Z,16.31
2017-01-09T05:38:14.419Z,16.23
2017-01-09T05:38:55.008Z,16.18
2017-01-09T05:39:35.598Z,16.3
2017-01-09T05:40:16.245Z,16.23
2017-01-09T05:40:56.826Z,16.26
2017-01-09T05:41:37.428Z,16.25
2017-01-09T05:42:18.018Z,16.26
2017-01-09T05:42:58.598Z,16.22
2017-01-09T05:43:39.232Z,16.22
2017-01-09T05:44:19.811Z,16.18
2017-01-09T05:45:00.389Z,16.18
2017-01-09T05:45:40.966Z,16.2
2017-01-09T05:46:21.550Z,16.23
2017-01-09T05:47:02.138Z,16.15
2017-01-09T05:47:42.721Z,16.18
2017-01-09T05:48:23.296Z,16.16
2017-01-09T05:49:03.881Z,16.15
2017-01-09T05:49:44.460Z,16.2
2017-01-09T05:50:25.044Z,16.22
2017-01-09T05:51:05.709Z,16.22
2017-01-09T05:51:46.310Z,16.15
2017-01-09T05:52:26.927Z,16.2
2017-01-09T05:53:07.500Z,16.27
2017-01-09T05:53:48.076Z,16.16
2017-01-09T05:54:28.667Z,16.14
2017-01-09T05:55:09.246Z,16.15
2017-01-09T05:55:49.846Z,16.16
2017-01-09T05:56:30.428Z,16.25
2017-01-09T05:57:11.013Z,16.2
2017-01-09T05:57:51.711Z,16.23
2017-01-09T05:58:32.388Z,16.23
2017-01-09T05:59:12.995Z,16.3
2017-01-09T05:59:53.569Z,16.15
2017-01-09T06:00:34.160Z,16.23
2017-01-09T06:01:14.808Z,16.23
2017-01-09T06:01:55.430Z,16.23
2017-01-09T06:02:36.021Z,16.18
2017-01-09T06:03:16.598Z,16.16
2017-01-09T06:03:57.444Z,16.2
2017-01-09T06:04:38.205Z,16.14
2017-01-09T06:05:18.911Z,16.18
2017-01-09T06:05:59.598Z,16.15
2017-01-09T06:06:40.211Z,16.14
2017-01-09T06:07:20.799Z,16.16
2017-01-09T06:08:01.416Z,16.11
2017-01-09T06:08:42.007Z,16.22
2017-01-09T06:09:22.577Z,16.23
2017-01-09T06:10:03.263Z,16.22
2017-01-09T06:10:43.861Z,16.18
2017-01-09T06:11:24.454Z,16.14
2017-01-09T06:12:05.048Z,16.16
2017-01-09T06:12:45.631Z,16.14
2017-01-09T06:13:26.264Z,16.15
2017-01-09T06:14:06.855Z,16.11
2017-01-09T06:14:47.434Z,16.11
2017-01-09T06:15:28.022Z,16.18
2017-01-09T06:16:08.716Z,16.15
2017-01-09T06:16:49.331Z,16.14
2017-01-09T06:17:29.920Z,16.15
2017-01-09T06:18:10.501Z,16.15
2017-01-09T06:18:51.101Z,16.22
2017-01-09T06:19:31.678Z,16.16
2017-01-09T06:20:12.268Z,16.14
2017-01-09T06:20:52.847Z,16.12
2017-01-09T06:21:33.433Z,16.14
2017-01-09T06:22:20.643Z,16.16
2017-01-09T06:23:01.217Z,16.12
2017-01-09T06:23:41.806Z,16.15
2017-01-09T06:24:22.388Z,16.12
2017-01-09T06:25:02.971Z,16.15
2017-01-09T06:25:43.614Z,16.14
2017-01-09T06:26:28.404Z,16.12
2017-01-09T06:27:08.982Z,16.15
2017-01-09T06:27:49.548Z,16.12
2017-01-09T06:28:30.190Z,16.16
2017-01-09T06:29:10.813Z,16.18
2017-01-09T06:29:51.393Z,16.15
2017-01-09T06:30:32.070Z,16.22
2017-01-09T06:31:12.634Z,16.15
2017-01-09T06:31:53.213Z,16.2
2017-01-09T06:32:33.810Z,16.18
2017-01-09T06:33:14.388Z,16.15
2017-01-09T06:33:54.983Z,16.18
2017-01-09T06:34:35.570Z,16.11
2017-01-09T06:35:16.157Z,16.15
2017-01-09T06:35:56.734Z,16.16
2017-01-09T06:36:37.340Z,16.14
2017-01-09T06:37:17.931Z,16.14
2017-01-09T06:37:58.518Z,16.15
2017-01-09T06:38:39.098Z,16.16
2017-01-09T06:39:19.771Z,16.15
2017-01-09T06:40:00.357Z,16.25
2017-01-09T06:40:40.942Z,16.18
2017-01-09T06:41:21.542Z,16.22
2017-01-09T06:42:02.122Z,16.2
2017-01-09T06:42:42.760Z,16.22
2017-01-09T06:43:23.339Z,16.16
2017-01-09T06:44:03.989Z,16.16
2017-01-09T06:44:44.571Z,16.15
2017-01-09T06:45:25.154Z,16.2
2017-01-09T06:46:05.733Z,16.2
2017-01-09T06:46:46.313Z,16.18
2017-01-09T06:47:26.897Z,16.16
2017-01-09T06:48:07.503Z,16.16
2017-01-09T06:48:48.075Z,16.15
2017-01-09T06:49:28.675Z,16.15
2017-01-09T06:50:09.351Z,16.15
2017-01-09T06:50:49.939Z,16.23
2017-01-09T06:51:30.541Z,16.22
2017-01-09T06:52:11.115Z,16.16
2017-01-09T06:52:51.694Z,16.16
2017-01-09T06:53:32.279Z,16.12
2017-01-09T06:54:12.869Z,16.15
2017-01-09T06:54:53.446Z,16.12
2017-01-09T06:55:34.032Z,16.18
2017-01-09T06:56:14.623Z,16.16
2017-01-09T06:56:55.200Z,16.22
2017-01-09T06:57:35.781Z,16.15
2017-01-09T06:58:16.361Z,16.18
2017-01-09T06:58:57.539Z,16.15
2017-01-09T06:59:38.180Z,16.2
2017-01-09T07:00:18.772Z,16.15
2017-01-09T07:00:59.354Z,16.15
2017-01-09T07:01:39.935Z,16.15
2017-01-09T07:02:20.526Z,16.23
2017-01-09T07:03:01.103Z,16.23
2017-01-09T07:03:41.704Z,16.18
2017-01-09T07:04:22.283Z,16.09
2017-01-09T07:05:02.893Z,16.09
2017-01-09T07:05:43.485Z,16.15
2017-01-09T07:06:24.075Z,16.23
2017-01-09T07:07:04.709Z,16.14
2017-01-09T07:07:45.289Z,16.16
2017-01-09T07:08:25.875Z,16.14
2017-01-09T07:09:06.453Z,16.12
2017-01-09T07:09:47.067Z,16.14
2017-01-09T07:10:27.649Z,16.22
2017-01-09T07:11:08.231Z,16.15
2017-01-09T07:11:49.392Z,16.15
2017-01-09T07:12:29.966Z,16.16
2017-01-09T07:13:10.548Z,16.22
2017-01-09T07:13:51.143Z,16.15
2017-01-09T07:14:31.711Z,16.16
2017-01-09T07:15:12.294Z,16.15
2017-01-09T07:15:52.879Z,16.18
2017-01-09T07:16:33.466Z,16.16
2017-01-09T07:17:14.050Z,16.12
2017-01-09T07:17:54.629Z,16.23
2017-01-09T07:18:35.207Z,16.2
2017-01-09T07:19:15.782Z,16.18
2017-01-09T07:19:56.369Z,16.16
2017-01-09T07:20:36.956Z,16.14
2017-01-09T07:21:17.531Z,16.16
2017-01-09T07:21:58.112Z,16.09
2017-01-09T07:22:38.691Z,16.16
2017-01-09T07:23:19.331Z,16.22
2017-01-09T07:23:59.972Z,16.16
2017-01-09T07:24:40.579Z,16.14
2017-01-09T07:25:21.164Z,16.14
2017-01-09T07:26:01.743Z,16.07
2017-01-09T07:26:42.391Z,16.2
2017-01-09T07:27:22.984Z,16.22
2017-01-09T07:28:03.559Z,16.15
2017-01-09T07:28:44.134Z,16.15
2017-01-09T07:29:24.711Z,16.18
2017-01-09T07:30:05.297Z,16.18
2017-01-09T07:30:45.894Z,16.11
2017-01-09T07:31:26.490Z,16.12
2017-01-09T07:32:07.149Z,16.14
2017-01-09T07:32:47.808Z,16.14
2017-01-09T07:33:28.395Z,16.2
2017-01-09T07:34:09.004Z,16.14
2017-01-09T07:34:49.581Z,16.12
2017-01-09T07:35:30.170Z,16.14
2017-01-09T07:36:10.748Z,16.15
2017-01-09T07:36:51.321Z,16.15
2017-01-09T07:37:31.913Z,16.15
2017-01-09T07:38:12.544Z,16.15
2017-01-09T07:38:53.125Z,16.16
2017-01-09T07:39:33.775Z,16.14
2017-01-09T07:40:14.442Z,16.12
2017-01-09T07:40:55.019Z,16.11
2017-01-09T07:41:35.608Z,16.12
2017-01-09T07:42:16.214Z,16.11
2017-01-09T07:42:56.813Z,16.11
2017-01-09T07:43:37.488Z,16.14
2017-01-09T07:44:18.099Z,16.14
2017-01-09T07:44:58.680Z,16.11
2017-01-09T07:45:39.255Z,16.11
2017-01-09T07:46:19.841Z,16.16
2017-01-09T07:47:00.487Z,16.07
2017-01-09T07:47:41.107Z,16.11
2017-01-09T07:48:21.696Z,16.14
2017-01-09T07:49:02.299Z,16.15
2017-01-09T07:49:42.883Z,16.14
2017-01-09T07:50:23.461Z,16.12
2017-01-09T07:51:04.052Z,16.18
2017-01-09T07:51:44.643Z,16.23
2017-01-09T07:52:25.227Z,16.18
2017-01-09T07:53:05.816Z,16.14
2017-01-09T07:53:46.401Z,16.22
2017-01-09T07:54:27.055Z,16.2
2017-01-09T07:55:07.666Z,16.12
2017-01-09T07:55:48.237Z,16.22
2017-01-09T07:56:28.871Z,16.18
2017-01-09T07:57:09.452Z,16.14
2017-01-09T07:57:50.076Z,16.12
2017-01-09T07:58:30.650Z,16.11
2017-01-09T07:59:11.237Z,16.12
2017-01-09T07:59:51.820Z,16.18
2017-01-09T08:00:32.396Z,16.18
2017-01-09T08:01:12.977Z,16.11
2017-01-09T08:01:53.590Z,16.16
2017-01-09T08:02:34.174Z,16.18
2017-01-09T08:03:14.762Z,16.18
2017-01-09T08:03:55.340Z,16.16
2017-01-09T08:04:35.925Z,16.16
2017-01-09T08:05:16.505Z,16.16
2017-01-09T08:05:57.082Z,16.2
2017-01-09T08:06:37.661Z,16.12
2017-01-09T08:07:18.243Z,16.09
2017-01-09T08:07:58.847Z,16.07
2017-01-09T08:08:39.507Z,16.15
2017-01-09T08:09:20.156Z,16.11
2017-01-09T08:10:00.702Z,16.15
2017-01-09T08:10:41.367Z,16.12
2017-01-09T08:11:21.958Z,16.18
2017-01-09T08:12:02.563Z,16.15
2017-01-09T08:12:43.144Z,16.16
2017-01-09T08:13:23.731Z,16.14
2017-01-09T08:14:04.325Z,16.15
2017-01-09T08:14:44.952Z,16.18
2017-01-09T08:15:25.555Z,16.18
2017-01-09T08:16:06.137Z,16.12
2017-01-09T08:16:46.721Z,16.18
2017-01-09T08:17:27.314Z,16.16
2017-01-09T08:18:07.888Z,16.11
2017-01-09T08:18:48.495Z,16.15
2017-01-09T08:19:29.178Z,16.15
2017-01-09T08:20:09.771Z,16.12
2017-01-09T08:20:50.352Z,16.18
2017-01-09T08:21:30.937Z,16.15
2017-01-09T08:22:11.534Z,16.18
2017-01-09T08:22:52.181Z,16.2
2017-01-09T08:23:32.855Z,16.15
2017-01-09T08:24:13.442Z,16.22
2017-01-09T08:24:54.036Z,16.11
2017-01-09T08:25:34.642Z,16.16
2017-01-09T08:26:15.225Z,16.14
2017-01-09T08:26:55.891Z,16.16
2017-01-09T08:27:36.502Z,16.04
2017-01-09T08:28:17.090Z,16.12
2017-01-09T08:28:57.672Z,16.11
2017-01-09T08:29:38.247Z,16.18
2017-01-09T08:30:18.901Z,16.22
2017-01-09T08:30:59.487Z,16.14
2017-01-09T08:31:40.091Z,16.15
2017-01-09T08:32:20.678Z,16.12
2017-01-09T08:33:01.265Z,16.11
2017-01-09T08:33:41.841Z,16.25
2017-01-09T08:34:22.473Z,16.2
2017-01-09T08:35:03.046Z,16.16
2017-01-09T08:35:43.624Z,16.06
2017-01-09T08:36:24.211Z,16.11
2017-01-09T08:37:04.787Z,16.16
2017-01-09T08:37:45.381Z,16.2
2017-01-09T08:38:25.964Z,16.22
2017-01-09T08:39:06.542Z,16.14
2017-01-09T08:39:47.123Z,16.09
2017-01-09T08:40:27.702Z,16.22
2017-01-09T08:41:08.282Z,16.09
2017-01-09T08:41:48.856Z,16.12
2017-01-09T08:42:29.432Z,16.12
2017-01-09T08:43:10.012Z,16.15
2017-01-09T08:43:50.592Z,16.09
2017-01-09T08:44:31.172Z,16.23
2017-01-09T08:45:11.779Z,16.09